createdAt,value
2019-01-31T00:00:14.749Z,5.19
2019-01-31T00:01:10.041Z,5.08
2019-01-31T00:02:04.563Z,5.27
2019-01-31T00:02:53.365Z,5.61
2019-01-31T00:03:30.316Z,5.98
2019-01-31T00:04:30.745Z,6.29
2019-01-31T00:05:23.521Z,6.71
2019-01-31T00:06:06.664Z,7.02
2019-01-31T00:07:04.086Z,7.24
2019-01-31T00:08:07.516Z,7.54
2019-01-31T00:08:56.088Z,7.66
2019-01-31T00:09:41.900Z,7.56
2019-01-31T00:10:49.944Z,7.38
2019-01-31T00:11:35.675Z,6.87
2019-01-31T00:12:29.348Z,6.56
2019-01-31T00:13:24.452Z,6.21
2019-01-31T00:14:16.469Z,5.82
2019-01-31T00:14:58.995Z,5.46
2019-01-31T00:16:04.223Z,5.18
2019-01-31T00:17:01.963Z,5.03
2019-01-31T00:17:48.393Z,5.27
2019-01-31T00:18:25.321Z,5.58
2019-01-31T00:19:32.349Z,5.86
2019-01-31T00:20:16.279Z,6.31
2019-01-31T00:21:01.986Z,6.60
2019-01-31T00:21:47.694Z,6.87
2019-01-31T00:22:55.550Z,7.14
2019-01-31T00:23:40.937Z,7.45
2019-01-31T00:24:26.631Z,7.66
2019-01-31T00:25:20.138Z,7.81
2019-01-31T00:26:25.496Z,7.73
2019-01-31T00:27:20.415Z,7.39
2019-01-31T00:28:13.428Z,7.04
2019-01-31T00:29:01.970Z,6.66
2019-01-31T00:29:41.367Z,6.38
2019-01-31T00:30:49.489Z,6.16
2019-01-31T00:32:03.983Z,5.73
2019-01-31T00:32:46.315Z,5.32
2019-01-31T00:33:29.291Z,5.14
2019-01-31T00:34:32.018Z,5.12
2019-01-31T00:35:32.791Z,5.35
2019-01-31T00:36:33.701Z,5.77
2019-01-31T00:37:31.945Z,6.22
2019-01-31T00:38:17.094Z,6.62
2019-01-31T00:39:10.937Z,6.94
2019-01-31T00:40:19.216Z,7.25
2019-01-31T00:41:14.208Z,7.61
2019-01-31T00:41:51.097Z,7.86
2019-01-31T00:42:51.678Z,8.07
2019-01-31T00:43:46.456Z,8.07
2019-01-31T00:44:34.965Z,7.83
2019-01-31T00:45:18.047Z,7.54
2019-01-31T00:46:17.129Z,7.20
2019-01-31T00:47:02.870Z,6.80
2019-01-31T00:48:01.929Z,6.51
2019-01-31T00:49:07.716Z,6.11
2019-01-31T00:49:47.258Z,5.73
2019-01-31T00:50:38.808Z,5.49
2019-01-31T00:51:35.070Z,5.21
2019-01-31T00:52:14.732Z,5.08
2019-01-31T00:53:12.252Z,5.24
2019-01-31T00:54:09.952Z,5.61
2019-01-31T00:54:52.881Z,6.04
2019-01-31T00:55:35.314Z,6.39
2019-01-31T00:56:34.631Z,6.72
2019-01-31T00:57:14.463Z,7.08
2019-01-31T00:58:18.677Z,7.35
2019-01-31T00:59:22.815Z,7.65
2019-01-31T01:00:17.831Z,7.93
2019-01-31T01:01:12.612Z,8.14
2019-01-31T01:01:54.999Z,8.25
2019-01-31T01:02:40.644Z,8.25
2019-01-31T01:03:29.339Z,8.04
2019-01-31T01:04:31.806Z,7.78
2019-01-31T01:05:28.292Z,7.33
2019-01-31T01:06:19.981Z,6.96
2019-01-31T01:07:17.082Z,6.62
2019-01-31T01:08:02.503Z,6.24
2019-01-31T01:08:39.345Z,5.98
2019-01-31T01:09:28.620Z,5.76
2019-01-31T01:10:28.184Z,5.46
2019-01-31T01:11:25.950Z,5.14
2019-01-31T01:12:34.201Z,5.10
2019-01-31T01:13:22.772Z,5.38
2019-01-31T01:14:17.294Z,5.77
2019-01-31T01:14:57.265Z,6.16
2019-01-31T01:15:36.734Z,6.46
2019-01-31T01:16:22.219Z,6.82
2019-01-31T01:17:11.197Z,7.11
2019-01-31T01:17:48.122Z,7.39
2019-01-31T01:18:37.130Z,7.62
2019-01-31T01:19:41.020Z,7.82
2019-01-31T01:20:23.926Z,8.03
2019-01-31T01:21:38.052Z,8.20
2019-01-31T01:22:23.257Z,8.25
2019-01-31T01:23:11.722Z,8.06
2019-01-31T01:24:21.727Z,7.82
2019-01-31T01:25:36.211Z,7.27
2019-01-31T01:26:21.990Z,6.71
2019-01-31T01:27:10.788Z,6.38
2019-01-31T01:27:53.446Z,6.04
2019-01-31T01:28:47.768Z,5.76
2019-01-31T01:29:30.793Z,5.41
2019-01-31T01:30:34.611Z,5.18
2019-01-31T01:31:26.347Z,5.07
2019-01-31T01:32:23.447Z,5.24
2019-01-31T01:33:18.444Z,5.59
2019-01-31T01:34:15.166Z,6.01
2019-01-31T01:35:18.441Z,6.39
2019-01-31T01:35:58.574Z,6.82
2019-01-31T01:36:59.440Z,7.08
2019-01-31T01:37:41.879Z,7.41
2019-01-31T01:38:51.678Z,7.65
2019-01-31T01:39:31.939Z,7.93
2019-01-31T01:40:42.195Z,8.13
2019-01-31T01:41:39.773Z,8.34
2019-01-31T01:42:40.391Z,8.56
2019-01-31T01:43:41.035Z,8.65
2019-01-31T01:44:24.075Z,8.44
2019-01-31T01:45:17.258Z,8.17
2019-01-31T01:46:11.966Z,7.82
2019-01-31T01:47:13.803Z,7.41
2019-01-31T01:47:53.473Z,6.96
2019-01-31T01:48:33.434Z,6.69
2019-01-31T01:49:21.986Z,6.44
2019-01-31T01:50:18.256Z,6.13
2019-01-31T01:51:24.786Z,5.79
2019-01-31T01:52:24.288Z,5.42
2019-01-31T01:53:19.298Z,5.11
2019-01-31T01:54:19.885Z,5.14
2019-01-31T01:55:11.370Z,5.42
2019-01-31T01:56:10.537Z,5.80
2019-01-31T01:57:08.539Z,6.21
2019-01-31T01:58:03.352Z,6.57
2019-01-31T01:59:01.874Z,6.93
2019-01-31T02:00:02.818Z,7.23
2019-01-31T02:00:56.030Z,7.49
2019-01-31T02:02:04.282Z,7.70
2019-01-31T02:03:09.747Z,7.92
2019-01-31T02:03:58.698Z,8.11
2019-01-31T02:05:04.906Z,8.31
2019-01-31T02:05:53.713Z,8.48
2019-01-31T02:06:57.517Z,8.65
2019-01-31T02:07:40.163Z,8.71
2019-01-31T02:08:22.937Z,8.59
2019-01-31T02:09:09.761Z,8.35
2019-01-31T02:10:08.922Z,8.06
2019-01-31T02:10:57.647Z,7.62
2019-01-31T02:11:57.226Z,7.27
2019-01-31T02:13:17.269Z,6.83
2019-01-31T02:13:59.855Z,6.28
2019-01-31T02:15:10.064Z,5.96
2019-01-31T02:15:58.790Z,5.55
2019-01-31T02:17:01.936Z,5.24
2019-01-31T02:17:47.290Z,5.10
2019-01-31T02:18:24.229Z,5.24
2019-01-31T02:19:07.228Z,5.52
2019-01-31T02:20:09.414Z,5.80
2019-01-31T02:20:57.734Z,6.31
2019-01-31T02:22:03.849Z,6.71
2019-01-31T02:23:04.879Z,7.11
2019-01-31T02:23:50.591Z,7.48
2019-01-31T02:24:44.951Z,7.72
2019-01-31T02:25:21.851Z,7.99
2019-01-31T02:26:30.559Z,8.14
2019-01-31T02:27:28.876Z,8.41
2019-01-31T02:28:17.465Z,8.59
2019-01-31T02:29:00.168Z,8.79
2019-01-31T02:29:48.231Z,8.89
2019-01-31T02:30:27.929Z,8.83
2019-01-31T02:31:23.158Z,8.66
2019-01-31T02:32:14.665Z,8.30
2019-01-31T02:33:01.176Z,7.92
2019-01-31T02:33:55.904Z,7.59
2019-01-31T02:34:41.916Z,7.18
2019-01-31T02:35:27.873Z,6.87
2019-01-31T02:36:22.668Z,6.55
2019-01-31T02:36:59.584Z,6.18
2019-01-31T02:37:54.399Z,5.96
2019-01-31T02:38:46.247Z,5.63
2019-01-31T02:39:43.164Z,5.49
2019-01-31T02:40:44.761Z,5.59
2019-01-31T02:41:21.644Z,6.01
2019-01-31T02:42:16.356Z,6.28
2019-01-31T02:43:19.897Z,6.71
2019-01-31T02:44:02.613Z,7.17
2019-01-31T02:44:47.835Z,7.46
2019-01-31T02:45:48.699Z,7.76
2019-01-31T02:46:42.874Z,8.03
2019-01-31T02:47:31.855Z,8.27
2019-01-31T02:48:27.238Z,8.48
2019-01-31T02:49:24.524Z,8.68
2019-01-31T02:50:20.693Z,8.89
2019-01-31T02:51:15.566Z,8.96
2019-01-31T02:52:04.250Z,8.83
2019-01-31T02:53:13.433Z,8.58
2019-01-31T02:53:55.976Z,8.10
2019-01-31T02:54:47.736Z,7.79
2019-01-31T02:55:39.129Z,7.39
2019-01-31T02:56:15.958Z,7.00
2019-01-31T02:57:04.970Z,6.76
2019-01-31T02:58:04.522Z,6.44
2019-01-31T02:58:53.087Z,6.07
2019-01-31T02:59:55.685Z,5.80
2019-01-31T03:00:50.387Z,5.65
2019-01-31T03:01:52.768Z,5.80
2019-01-31T03:02:32.468Z,6.21
2019-01-31T03:03:09.364Z,6.51
2019-01-31T03:04:07.627Z,6.85
2019-01-31T03:04:45.595Z,7.18
2019-01-31T03:05:34.395Z,7.41
2019-01-31T03:06:11.215Z,7.65
2019-01-31T03:07:24.333Z,7.86
2019-01-31T03:08:16.094Z,8.10
2019-01-31T03:09:31.933Z,8.30
2019-01-31T03:10:23.957Z,8.47
2019-01-31T03:11:18.646Z,8.66
2019-01-31T03:12:01.991Z,8.80
2019-01-31T03:13:09.008Z,8.98
2019-01-31T03:13:54.705Z,8.95
2019-01-31T03:14:31.826Z,8.82
2019-01-31T03:15:17.613Z,8.61
2019-01-31T03:16:06.206Z,8.31
2019-01-31T03:16:57.876Z,7.96
2019-01-31T03:18:15.992Z,7.56
2019-01-31T03:18:58.762Z,6.97
2019-01-31T03:19:44.504Z,6.69
2019-01-31T03:20:29.746Z,6.42
2019-01-31T03:21:49.350Z,6.13
2019-01-31T03:22:28.712Z,5.63
2019-01-31T03:23:08.402Z,5.46
2019-01-31T03:23:50.835Z,5.49
2019-01-31T03:24:54.700Z,5.66
2019-01-31T03:25:43.121Z,6.11
2019-01-31T03:26:20.023Z,6.51
2019-01-31T03:27:05.721Z,6.83
2019-01-31T03:28:00.775Z,7.15
2019-01-31T03:29:18.207Z,7.46
2019-01-31T03:30:10.195Z,7.79
2019-01-31T03:31:24.719Z,7.99
2019-01-31T03:32:31.923Z,8.28
2019-01-31T03:33:48.371Z,8.47
2019-01-31T03:34:33.952Z,8.72
2019-01-31T03:35:22.479Z,8.89
2019-01-31T03:36:08.468Z,9.04
2019-01-31T03:37:06.107Z,9.16
2019-01-31T03:37:45.542Z,9.02
2019-01-31T03:38:22.469Z,8.85
2019-01-31T03:39:17.194Z,8.63
2019-01-31T03:40:38.082Z,8.25
2019-01-31T03:41:23.324Z,7.65
2019-01-31T03:42:11.597Z,7.39
2019-01-31T03:43:09.372Z,7.11
2019-01-31T03:43:58.563Z,6.78
2019-01-31T03:44:38.242Z,6.45
2019-01-31T03:45:29.518Z,6.22
2019-01-31T03:46:38.200Z,6.06
2019-01-31T03:47:22.994Z,6.14
2019-01-31T03:47:59.882Z,6.46
2019-01-31T03:49:05.201Z,6.72
2019-01-31T03:49:42.070Z,7.14
2019-01-31T03:50:21.983Z,7.39
2019-01-31T03:51:04.582Z,7.67
2019-01-31T03:51:47.102Z,7.92
2019-01-31T03:52:46.480Z,8.18
2019-01-31T03:53:43.996Z,8.41
2019-01-31T03:54:37.321Z,8.61
2019-01-31T03:55:40.457Z,8.80
2019-01-31T03:56:46.122Z,8.99
2019-01-31T03:57:41.931Z,9.17
2019-01-31T03:58:30.650Z,9.28
2019-01-31T03:59:10.935Z,9.14
2019-01-31T03:59:44.971Z,8.95
2019-01-31T04:00:39.216Z,8.75
2019-01-31T04:01:47.746Z,8.31
2019-01-31T04:02:27.614Z,7.70
2019-01-31T04:03:04.505Z,7.39
2019-01-31T04:03:56.061Z,7.14
2019-01-31T04:04:53.454Z,6.73
2019-01-31T04:05:39.202Z,6.32
2019-01-31T04:06:15.021Z,6.04
2019-01-31T04:06:46.230Z,5.86
2019-01-31T04:07:17.400Z,5.83
2019-01-31T04:07:48.580Z,5.96
2019-01-31T04:08:19.780Z,6.13
2019-01-31T04:08:50.973Z,6.34
2019-01-31T04:09:22.140Z,6.59
2019-01-31T04:09:53.330Z,6.85
2019-01-31T04:10:24.719Z,7.06
2019-01-31T04:10:55.898Z,7.34
2019-01-31T04:11:27.072Z,7.54
2019-01-31T04:11:58.557Z,7.75
2019-01-31T04:12:29.760Z,7.94
2019-01-31T04:13:00.945Z,8.13
2019-01-31T04:13:32.528Z,8.31
2019-01-31T04:14:03.775Z,8.45
2019-01-31T04:14:34.965Z,8.61
2019-01-31T04:15:08.457Z,8.72
2019-01-31T04:15:39.677Z,8.85
2019-01-31T04:16:10.858Z,8.98
2019-01-31T04:16:43.046Z,9.07
2019-01-31T04:17:14.224Z,9.09
2019-01-31T04:17:45.413Z,8.98
2019-01-31T04:18:16.647Z,8.83
2019-01-31T04:18:47.808Z,8.62
2019-01-31T04:19:19.039Z,8.42
2019-01-31T04:19:50.196Z,8.16
2019-01-31T04:20:21.452Z,7.92
2019-01-31T04:20:52.619Z,7.67
2019-01-31T04:21:23.820Z,7.45
2019-01-31T04:21:55.017Z,7.23
2019-01-31T04:22:26.330Z,7.02
2019-01-31T04:22:57.508Z,6.82
2019-01-31T04:23:29.088Z,6.59
2019-01-31T04:24:00.246Z,6.38
2019-01-31T04:24:31.823Z,6.24
2019-01-31T04:25:03.428Z,6.20
2019-01-31T04:25:34.650Z,6.28
2019-01-31T04:26:07.714Z,6.44
2019-01-31T04:26:38.931Z,6.66
2019-01-31T04:27:10.107Z,6.89
2019-01-31T04:27:41.322Z,7.15
2019-01-31T04:28:12.483Z,7.41
2019-01-31T04:28:43.707Z,7.63
2019-01-31T04:29:14.888Z,7.86
2019-01-31T04:29:46.119Z,8.06
2019-01-31T04:30:17.383Z,8.30
2019-01-31T04:30:48.595Z,8.47
2019-01-31T04:31:19.814Z,8.63
2019-01-31T04:31:51.050Z,8.79
2019-01-31T04:32:22.280Z,8.93
2019-01-31T04:32:54.238Z,9.10
2019-01-31T04:33:25.484Z,9.21
2019-01-31T04:33:56.762Z,9.24
2019-01-31T04:34:27.984Z,9.17
2019-01-31T04:34:59.127Z,9.00
2019-01-31T04:35:30.345Z,8.79
2019-01-31T04:36:01.910Z,8.56
2019-01-31T04:36:33.129Z,8.27
2019-01-31T04:37:04.287Z,7.97
2019-01-31T04:37:35.503Z,7.72
2019-01-31T04:38:06.674Z,7.46
2019-01-31T04:38:37.883Z,7.20
2019-01-31T04:39:09.049Z,6.96
2019-01-31T04:39:40.251Z,6.75
2019-01-31T04:40:11.514Z,6.53
2019-01-31T04:40:42.715Z,6.36
2019-01-31T04:41:13.865Z,6.28
2019-01-31T04:41:46.083Z,6.36
2019-01-31T04:42:17.253Z,6.49
2019-01-31T04:42:48.495Z,6.69
2019-01-31T04:43:19.735Z,6.92
2019-01-31T04:43:50.931Z,7.14
2019-01-31T04:44:22.109Z,7.38
2019-01-31T04:44:53.348Z,7.59
2019-01-31T04:45:24.605Z,7.81
2019-01-31T04:45:55.879Z,7.99
2019-01-31T04:46:27.123Z,8.16
2019-01-31T04:46:58.780Z,8.35
2019-01-31T04:47:30.019Z,8.48
2019-01-31T04:48:01.304Z,8.66
2019-01-31T04:48:32.524Z,8.78
2019-01-31T04:49:03.686Z,8.92
2019-01-31T04:49:34.912Z,9.03
2019-01-31T04:50:10.871Z,9.14
2019-01-31T04:50:42.073Z,9.21
2019-01-31T04:51:13.224Z,9.20
2019-01-31T04:51:44.430Z,9.11
2019-01-31T04:52:15.600Z,8.93
2019-01-31T04:52:46.817Z,8.73
2019-01-31T04:53:17.972Z,8.53
2019-01-31T04:53:49.167Z,8.27
2019-01-31T04:54:20.344Z,8.02
2019-01-31T04:54:51.568Z,7.76
2019-01-31T04:55:22.799Z,7.52
2019-01-31T04:55:54.009Z,7.27
2019-01-31T04:56:25.159Z,7.03
2019-01-31T04:56:56.359Z,6.80
2019-01-31T04:57:27.529Z,6.59
2019-01-31T04:57:58.753Z,6.41
2019-01-31T04:58:29.901Z,6.38
2019-01-31T04:59:01.106Z,6.44
2019-01-31T04:59:32.311Z,6.57
2019-01-31T05:00:16.064Z,6.82
2019-01-31T05:00:47.239Z,7.10
2019-01-31T05:01:18.416Z,7.35
2019-01-31T05:01:49.600Z,7.58
2019-01-31T05:02:20.781Z,7.81
2019-01-31T05:02:51.966Z,8.00
2019-01-31T05:03:23.141Z,8.24
2019-01-31T05:03:54.348Z,8.42
2019-01-31T05:04:25.533Z,8.59
2019-01-31T05:04:56.688Z,8.75
2019-01-31T05:05:27.914Z,8.89
2019-01-31T05:05:59.107Z,9.04
2019-01-31T05:06:30.298Z,9.14
2019-01-31T05:07:01.762Z,9.27
2019-01-31T05:07:32.948Z,9.37
2019-01-31T05:08:04.188Z,9.35
2019-01-31T05:08:35.357Z,9.28
2019-01-31T05:09:06.585Z,9.13
2019-01-31T05:09:37.826Z,8.98
2019-01-31T05:10:11.606Z,8.78
2019-01-31T05:10:43.531Z,8.51
2019-01-31T05:11:14.847Z,8.31
2019-01-31T05:11:46.103Z,8.07
2019-01-31T05:12:17.400Z,7.86
2019-01-31T05:12:48.671Z,7.63
2019-01-31T05:13:19.904Z,7.38
2019-01-31T05:13:51.159Z,7.20
2019-01-31T05:14:22.356Z,7.00
2019-01-31T05:14:53.617Z,6.78
2019-01-31T05:15:24.807Z,6.65
2019-01-31T05:15:56.067Z,6.64
2019-01-31T05:16:27.318Z,6.72
2019-01-31T05:16:58.744Z,6.86
2019-01-31T05:17:29.934Z,7.07
2019-01-31T05:18:01.165Z,7.31
2019-01-31T05:18:32.358Z,7.63
2019-01-31T05:19:03.604Z,7.85
2019-01-31T05:19:34.775Z,8.10
2019-01-31T05:20:13.408Z,8.34
2019-01-31T05:20:44.609Z,8.59
2019-01-31T05:21:15.881Z,8.78
2019-01-31T05:21:47.061Z,8.99
2019-01-31T05:22:18.291Z,9.16
2019-01-31T05:22:49.483Z,9.33
2019-01-31T05:23:20.718Z,9.47
2019-01-31T05:23:51.915Z,9.49
2019-01-31T05:24:23.139Z,9.44
2019-01-31T05:24:55.368Z,9.30
2019-01-31T05:25:26.608Z,9.11
2019-01-31T05:25:57.817Z,8.89
2019-01-31T05:26:29.303Z,8.65
2019-01-31T05:27:00.542Z,8.42
2019-01-31T05:27:31.862Z,8.17
2019-01-31T05:28:03.112Z,7.93
2019-01-31T05:28:34.316Z,7.67
2019-01-31T05:29:05.512Z,7.46
2019-01-31T05:29:36.708Z,7.28
2019-01-31T05:30:14.036Z,7.10
2019-01-31T05:30:45.239Z,6.85
2019-01-31T05:31:16.446Z,6.71
2019-01-31T05:31:47.674Z,6.62
2019-01-31T05:32:18.935Z,6.72
2019-01-31T05:32:50.101Z,6.83
2019-01-31T05:33:21.276Z,7.07
2019-01-31T05:33:52.464Z,7.31
2019-01-31T05:34:23.658Z,7.59
2019-01-31T05:34:54.887Z,7.86
2019-01-31T05:35:26.046Z,8.10
2019-01-31T05:35:57.268Z,8.34
2019-01-31T05:36:28.433Z,8.58
2019-01-31T05:36:59.710Z,8.80
2019-01-31T05:37:30.876Z,8.99
2019-01-31T05:38:02.533Z,9.20
2019-01-31T05:38:33.695Z,9.38
2019-01-31T05:39:06.517Z,9.54
2019-01-31T05:39:37.673Z,9.65
2019-01-31T05:40:12.479Z,9.70
2019-01-31T05:40:54.398Z,9.62
2019-01-31T05:41:16.755Z,9.44
2019-01-31T05:41:47.913Z,9.24
2019-01-31T05:42:19.128Z,9.04
2019-01-31T05:42:50.279Z,8.80
2019-01-31T05:43:21.496Z,8.59
2019-01-31T05:43:52.662Z,8.37
2019-01-31T05:44:23.885Z,8.13
2019-01-31T05:44:55.047Z,7.92
2019-01-31T05:45:26.258Z,7.67
2019-01-31T05:45:57.424Z,7.49
2019-01-31T05:46:28.770Z,7.31
2019-01-31T05:46:59.920Z,7.11
2019-01-31T05:47:31.621Z,6.97
2019-01-31T05:48:02.792Z,6.92
2019-01-31T05:48:33.994Z,7.00
2019-01-31T05:49:05.187Z,7.15
2019-01-31T05:49:36.406Z,7.38
2019-01-31T05:50:11.278Z,7.65
2019-01-31T05:50:42.459Z,7.93
2019-01-31T05:51:13.655Z,8.20
2019-01-31T05:51:44.847Z,8.48
2019-01-31T05:52:16.063Z,8.69
2019-01-31T05:52:47.237Z,8.93
2019-01-31T05:53:18.434Z,9.16
2019-01-31T05:53:49.616Z,9.30
2019-01-31T05:54:20.789Z,9.51
2019-01-31T05:54:51.963Z,9.68
2019-01-31T05:55:23.158Z,9.72
2019-01-31T05:55:54.337Z,9.69
2019-01-31T05:56:25.532Z,9.58
2019-01-31T05:56:56.749Z,9.41
2019-01-31T05:57:27.925Z,9.23
2019-01-31T05:57:59.210Z,9.03
2019-01-31T05:58:30.399Z,8.80
2019-01-31T05:59:01.823Z,8.62
2019-01-31T05:59:33.010Z,8.38
2019-01-31T06:00:15.593Z,8.17
2019-01-31T06:00:46.899Z,7.90
2019-01-31T06:01:18.296Z,7.69
2019-01-31T06:01:49.557Z,7.52
2019-01-31T06:02:20.803Z,7.37
2019-01-31T06:02:52.063Z,7.18
2019-01-31T06:03:23.289Z,7.04
2019-01-31T06:03:54.544Z,6.90
2019-01-31T06:04:25.781Z,6.79
2019-01-31T06:04:57.014Z,6.76
2019-01-31T06:05:28.673Z,6.90
2019-01-31T06:05:59.827Z,7.07
2019-01-31T06:06:31.027Z,7.31
2019-01-31T06:07:10.920Z,7.59
2019-01-31T06:07:35.330Z,7.85
2019-01-31T06:08:06.521Z,8.13
2019-01-31T06:08:37.692Z,8.41
2019-01-31T06:09:08.891Z,8.63
2019-01-31T06:09:40.051Z,8.85
2019-01-31T06:10:11.757Z,9.10
2019-01-31T06:10:42.931Z,9.27
2019-01-31T06:11:14.115Z,9.47
2019-01-31T06:11:45.296Z,9.59
2019-01-31T06:12:16.477Z,9.68
2019-01-31T06:12:47.681Z,9.62
2019-01-31T06:13:18.871Z,9.51
2019-01-31T06:13:50.072Z,9.34
2019-01-31T06:14:21.258Z,9.14
2019-01-31T06:14:52.442Z,8.95
2019-01-31T06:15:23.653Z,8.73
2019-01-31T06:15:54.805Z,8.51
2019-01-31T06:16:26.044Z,8.30
2019-01-31T06:16:57.180Z,8.10
2019-01-31T06:17:28.808Z,7.89
2019-01-31T06:17:59.963Z,7.67
2019-01-31T06:18:31.639Z,7.49
2019-01-31T06:19:02.797Z,7.31
2019-01-31T06:19:34.023Z,7.14
2019-01-31T06:20:08.996Z,6.97
2019-01-31T06:20:40.199Z,6.85
2019-01-31T06:21:11.358Z,6.83
2019-01-31T06:21:42.586Z,6.93
2019-01-31T06:22:13.731Z,7.10
2019-01-31T06:22:44.941Z,7.37
2019-01-31T06:23:16.104Z,7.58
2019-01-31T06:23:47.317Z,7.89
2019-01-31T06:24:18.471Z,8.13
2019-01-31T06:24:49.698Z,8.41
2019-01-31T06:25:20.841Z,8.65
2019-01-31T06:25:52.073Z,8.86
2019-01-31T06:26:23.233Z,9.07
2019-01-31T06:26:54.439Z,9.27
2019-01-31T06:27:25.600Z,9.44
2019-01-31T06:27:56.799Z,9.61
2019-01-31T06:28:27.955Z,9.75
2019-01-31T06:28:59.519Z,9.78
2019-01-31T06:29:31.833Z,9.72
2019-01-31T06:30:08.243Z,9.58
2019-01-31T06:30:39.412Z,9.34
2019-01-31T06:31:10.664Z,9.14
2019-01-31T06:31:41.904Z,8.92
2019-01-31T06:32:13.140Z,8.72
2019-01-31T06:32:44.483Z,8.51
2019-01-31T06:33:15.736Z,8.30
2019-01-31T06:33:46.983Z,8.09
2019-01-31T06:34:18.225Z,7.85
2019-01-31T06:34:49.474Z,7.69
2019-01-31T06:35:20.728Z,7.51
2019-01-31T06:35:51.970Z,7.34
2019-01-31T06:36:23.300Z,7.17
2019-01-31T06:36:54.523Z,6.99
2019-01-31T06:37:25.684Z,6.87
2019-01-31T06:37:56.904Z,6.89
2019-01-31T06:38:28.063Z,6.99
2019-01-31T06:38:59.600Z,7.15
2019-01-31T06:39:30.749Z,7.37
2019-01-31T06:40:09.531Z,7.62
2019-01-31T06:40:40.721Z,7.93
2019-01-31T06:41:18.236Z,8.18
2019-01-31T06:41:45.112Z,8.44
2019-01-31T06:42:16.361Z,8.69
2019-01-31T06:42:47.822Z,8.90
2019-01-31T06:43:19.058Z,9.13
2019-01-31T06:43:50.319Z,9.31
2019-01-31T06:44:21.555Z,9.51
2019-01-31T06:44:52.815Z,9.65
2019-01-31T06:45:25.069Z,9.78
2019-01-31T06:45:56.469Z,9.81
2019-01-31T06:46:27.646Z,9.73
2019-01-31T06:46:59.408Z,9.62
2019-01-31T06:47:30.574Z,9.44
2019-01-31T06:48:05.032Z,9.26
2019-01-31T06:48:35.226Z,9.04
2019-01-31T06:49:06.436Z,8.83
2019-01-31T06:49:37.624Z,8.58
2019-01-31T06:50:08.766Z,8.40
2019-01-31T06:50:39.920Z,8.17
2019-01-31T06:51:11.108Z,7.96
2019-01-31T06:51:42.301Z,7.73
2019-01-31T06:52:13.445Z,7.55
2019-01-31T06:52:44.612Z,7.34
2019-01-31T06:53:15.757Z,7.18
2019-01-31T06:53:46.937Z,7.00
2019-01-31T06:54:18.115Z,6.86
2019-01-31T06:54:49.289Z,6.87
2019-01-31T06:55:20.467Z,6.96
2019-01-31T06:55:51.671Z,7.14
2019-01-31T06:56:22.831Z,7.39
2019-01-31T06:56:53.982Z,7.65
2019-01-31T06:57:25.166Z,7.89
2019-01-31T06:57:56.323Z,8.17
2019-01-31T06:58:27.495Z,8.45
2019-01-31T06:58:58.877Z,8.69
2019-01-31T06:59:30.042Z,8.89
2019-01-31T07:00:01.195Z,9.10
2019-01-31T07:00:32.368Z,9.28
2019-01-31T07:01:03.554Z,9.48
2019-01-31T07:01:34.698Z,9.65
2019-01-31T07:02:05.928Z,9.79
2019-01-31T07:02:37.076Z,9.81
2019-01-31T07:03:08.290Z,9.73
2019-01-31T07:03:39.478Z,9.62
2019-01-31T07:04:11.152Z,9.47
2019-01-31T07:04:42.347Z,9.24
2019-01-31T07:05:13.560Z,9.06
2019-01-31T07:05:44.732Z,8.80
2019-01-31T07:06:15.974Z,8.62
2019-01-31T07:06:47.118Z,8.41
2019-01-31T07:07:18.406Z,8.23
2019-01-31T07:07:49.671Z,7.97
2019-01-31T07:08:20.931Z,7.81
2019-01-31T07:08:52.187Z,7.63
2019-01-31T07:09:23.429Z,7.42
2019-01-31T07:09:54.785Z,7.27
2019-01-31T07:10:26.043Z,7.11
2019-01-31T07:10:57.290Z,6.97
2019-01-31T07:11:30.033Z,6.97
2019-01-31T07:12:02.000Z,7.07
2019-01-31T07:12:33.193Z,7.25
2019-01-31T07:13:04.357Z,7.49
2019-01-31T07:13:35.557Z,7.76
2019-01-31T07:14:06.734Z,8.03
2019-01-31T07:14:37.935Z,8.32
2019-01-31T07:15:10.709Z,8.56
2019-01-31T07:15:41.906Z,8.80
2019-01-31T07:16:13.086Z,9.06
2019-01-31T07:16:45.334Z,9.27
2019-01-31T07:17:18.354Z,9.47
2019-01-31T07:17:49.719Z,9.63
2019-01-31T07:18:20.934Z,9.84
2019-01-31T07:18:52.171Z,9.98
2019-01-31T07:19:23.376Z,10.02
2019-01-31T07:19:56.547Z,9.96
2019-01-31T07:20:27.680Z,9.84
2019-01-31T07:20:58.893Z,9.66
2019-01-31T07:21:30.073Z,9.44
2019-01-31T07:22:01.279Z,9.24
2019-01-31T07:22:32.466Z,9.03
2019-01-31T07:23:03.863Z,8.83
2019-01-31T07:23:35.057Z,8.62
2019-01-31T07:24:06.234Z,8.42
2019-01-31T07:24:37.416Z,8.21
2019-01-31T07:25:18.529Z,8.00
2019-01-31T07:25:49.798Z,7.72
2019-01-31T07:26:22.713Z,7.54
2019-01-31T07:26:54.011Z,7.38
2019-01-31T07:27:25.271Z,7.21
2019-01-31T07:27:56.427Z,7.06
2019-01-31T07:28:27.633Z,7.03
2019-01-31T07:28:59.151Z,7.11
2019-01-31T07:29:30.369Z,7.28
2019-01-31T07:30:01.639Z,7.52
2019-01-31T07:30:32.846Z,7.78
2019-01-31T07:31:04.103Z,8.06
2019-01-31T07:31:35.334Z,8.32
2019-01-31T07:32:06.512Z,8.56
2019-01-31T07:32:37.727Z,8.82
2019-01-31T07:33:08.884Z,9.04
2019-01-31T07:33:40.107Z,9.26
2019-01-31T07:34:11.277Z,9.45
2019-01-31T07:34:42.523Z,9.63
2019-01-31T07:35:13.943Z,9.81
2019-01-31T07:35:45.176Z,9.90
2019-01-31T07:36:16.407Z,9.85
2019-01-31T07:36:47.628Z,9.75
2019-01-31T07:37:18.795Z,9.58
2019-01-31T07:37:52.916Z,9.40
2019-01-31T07:38:23.073Z,9.17
2019-01-31T07:38:54.404Z,8.98
2019-01-31T07:39:25.655Z,8.75
2019-01-31T07:39:56.855Z,8.53
2019-01-31T07:40:28.024Z,8.32
2019-01-31T07:40:59.391Z,8.13
2019-01-31T07:41:40.656Z,7.92
2019-01-31T07:42:03.748Z,7.72
2019-01-31T07:42:34.989Z,7.54
2019-01-31T07:43:06.224Z,7.37
2019-01-31T07:43:37.449Z,7.20
2019-01-31T07:44:08.691Z,7.06
2019-01-31T07:44:39.920Z,7.04
2019-01-31T07:45:21.526Z,7.14
2019-01-31T07:45:52.780Z,7.41
2019-01-31T07:46:24.026Z,7.63
2019-01-31T07:46:55.250Z,7.89
2019-01-31T07:47:26.402Z,8.17
2019-01-31T07:47:57.602Z,8.45
2019-01-31T07:48:28.781Z,8.71
2019-01-31T07:49:00.030Z,8.95
2019-01-31T07:49:31.186Z,9.19
2019-01-31T07:50:10.882Z,9.38
2019-01-31T07:50:42.041Z,9.57
2019-01-31T07:51:13.286Z,9.76
2019-01-31T07:51:44.459Z,9.89
2019-01-31T07:52:15.888Z,9.95
2019-01-31T07:52:47.321Z,9.88
2019-01-31T07:53:18.571Z,9.79
2019-01-31T07:53:49.812Z,9.58
2019-01-31T07:54:21.049Z,9.41
2019-01-31T07:54:52.327Z,9.19
2019-01-31T07:55:23.565Z,8.96
2019-01-31T07:55:54.805Z,8.76
2019-01-31T07:56:26.070Z,8.53
2019-01-31T07:56:57.296Z,8.34
2019-01-31T07:57:28.756Z,8.11
2019-01-31T07:58:00.679Z,7.92
2019-01-31T07:58:31.982Z,7.72
2019-01-31T07:59:03.233Z,7.52
2019-01-31T07:59:34.397Z,7.34
2019-01-31T08:00:23.584Z,7.18
2019-01-31T08:00:54.739Z,7.00
2019-01-31T08:01:25.966Z,7.06
2019-01-31T08:01:57.166Z,7.21
2019-01-31T08:02:28.814Z,7.39
2019-01-31T08:03:00.078Z,7.65
2019-01-31T08:03:31.850Z,7.90
2019-01-31T08:04:03.418Z,8.17
2019-01-31T08:04:34.677Z,8.41
2019-01-31T08:05:10.956Z,8.65
2019-01-31T08:05:42.334Z,8.89
2019-01-31T08:06:13.585Z,9.11
2019-01-31T08:06:44.867Z,9.31
2019-01-31T08:07:16.121Z,9.51
2019-01-31T08:07:48.150Z,9.69
2019-01-31T08:08:19.408Z,9.85
2019-01-31T08:08:50.687Z,9.96
2019-01-31T08:09:21.868Z,10.02
2019-01-31T08:09:56.004Z,9.95
2019-01-31T08:10:34.183Z,9.81
2019-01-31T08:11:05.490Z,9.58
2019-01-31T08:11:36.673Z,9.40
2019-01-31T08:12:07.901Z,9.19
2019-01-31T08:12:39.073Z,8.98
2019-01-31T08:13:10.302Z,8.78
2019-01-31T08:13:41.459Z,8.58
2019-01-31T08:14:12.679Z,8.34
2019-01-31T08:14:43.830Z,8.13
2019-01-31T08:15:17.566Z,7.94
2019-01-31T08:15:49.721Z,7.72
2019-01-31T08:16:20.932Z,7.55
2019-01-31T08:16:52.123Z,7.39
2019-01-31T08:17:23.373Z,7.21
2019-01-31T08:17:54.642Z,7.08
2019-01-31T08:18:26.901Z,7.06
2019-01-31T08:18:58.158Z,7.15
2019-01-31T08:19:29.447Z,7.34
2019-01-31T08:20:00.641Z,7.56
2019-01-31T08:20:31.994Z,7.82
2019-01-31T08:21:03.162Z,8.07
2019-01-31T08:21:34.388Z,8.34
2019-01-31T08:22:05.598Z,8.61
2019-01-31T08:22:36.788Z,8.85
2019-01-31T08:23:08.010Z,9.04
2019-01-31T08:23:39.261Z,9.26
2019-01-31T08:24:10.455Z,9.42
2019-01-31T08:24:41.649Z,9.58
2019-01-31T08:25:20.599Z,9.78
2019-01-31T08:25:51.799Z,9.90
2019-01-31T08:26:22.979Z,9.90
2019-01-31T08:26:55.950Z,9.81
2019-01-31T08:27:27.254Z,9.68
2019-01-31T08:27:58.766Z,9.49
2019-01-31T08:28:29.979Z,9.28
2019-01-31T08:29:01.183Z,9.07
2019-01-31T08:29:32.407Z,8.89
2019-01-31T08:30:09.304Z,8.65
2019-01-31T08:30:42.387Z,8.41
2019-01-31T08:31:13.563Z,8.17
2019-01-31T08:31:44.743Z,7.96
2019-01-31T08:32:15.958Z,7.76
2019-01-31T08:32:47.235Z,7.58
2019-01-31T08:33:18.464Z,7.41
2019-01-31T08:33:50.692Z,7.21
2019-01-31T08:34:21.965Z,7.10
2019-01-31T08:34:53.116Z,7.03
2019-01-31T08:35:24.343Z,7.08
2019-01-31T08:35:55.581Z,7.27
2019-01-31T08:36:26.865Z,7.44
2019-01-31T08:36:58.121Z,7.67
2019-01-31T08:37:29.377Z,7.99
2019-01-31T08:38:00.553Z,8.21
2019-01-31T08:38:32.369Z,8.49
2019-01-31T08:39:05.539Z,8.71